createdAt,value
2022-12-18T00:00:48.909Z,-6.60
2022-12-18T00:03:16.084Z,-6.57
2022-12-18T00:05:53.161Z,-6.58
2022-12-18T00:08:20.121Z,-6.58
2022-12-18T00:10:47.084Z,-6.60
2022-12-18T00:13:13.856Z,-6.56
2022-12-18T00:15:40.658Z,-6.55
2022-12-18T00:18:07.342Z,-6.63
2022-12-18T00:20:39.056Z,-6.51
2022-12-18T00:23:06.032Z,-6.50
2022-12-18T00:25:36.606Z,-6.44
2022-12-18T00:28:04.870Z,-6.39
2022-12-18T00:30:31.396Z,-6.34
2022-12-18T00:32:58.274Z,-6.30
2022-12-18T00:35:24.663Z,-6.27
2022-12-18T00:37:51.063Z,-6.27
2022-12-18T00:40:17.494Z,-6.25
2022-12-18T00:42:58.954Z,-6.24
2022-12-18T00:45:26.382Z,-6.30
2022-12-18T00:47:52.966Z,-6.29
2022-12-18T00:50:19.757Z,-6.30
2022-12-18T00:52:46.144Z,-6.28
2022-12-18T00:55:12.719Z,-6.27
2022-12-18T00:57:39.181Z,-6.26
2022-12-18T01:00:07.725Z,-6.34
2022-12-18T01:02:34.214Z,-6.29
2022-12-18T01:05:00.734Z,-6.30
2022-12-18T01:07:27.111Z,-6.30
2022-12-18T01:09:53.472Z,-6.30
2022-12-18T01:12:19.894Z,-6.30
2022-12-18T01:14:46.350Z,-6.34
2022-12-18T01:17:12.751Z,-6.42
2022-12-18T01:19:39.219Z,-6.35
2022-12-18T01:22:05.588Z,-6.29
2022-12-18T01:24:31.998Z,-6.24
2022-12-18T01:26:58.875Z,-6.25
2022-12-18T01:29:25.240Z,-6.28
2022-12-18T01:31:52.504Z,-6.23
2022-12-18T01:34:18.910Z,-6.21
2022-12-18T01:36:45.298Z,-6.19
2022-12-18T01:39:13.735Z,-6.21
2022-12-18T01:41:58.811Z,-6.16
2022-12-18T01:44:53.328Z,-6.18
2022-12-18T01:47:43.099Z,-6.17
2022-12-18T01:50:19.941Z,-6.19
2022-12-18T01:52:49.985Z,-6.16
2022-12-18T01:55:19.479Z,-6.17
2022-12-18T01:57:47.212Z,-6.16
2022-12-18T02:00:17.432Z,-6.20
2022-12-18T02:02:44.989Z,-6.22
2022-12-18T02:05:12.909Z,-6.22
2022-12-18T02:08:04.638Z,-6.14
2022-12-18T02:10:34.099Z,-6.19
2022-12-18T02:13:18.654Z,-6.17
2022-12-18T02:15:49.921Z,-6.17
2022-12-18T02:18:22.421Z,-6.19
2022-12-18T02:21:00.453Z,-6.26
2022-12-18T02:24:13.308Z,-6.24
2022-12-18T02:26:47.946Z,-6.34
2022-12-18T02:29:17.949Z,-6.38
2022-12-18T02:31:54.849Z,-6.37
2022-12-18T02:34:23.670Z,-6.41
2022-12-18T02:36:50.928Z,-6.41
2022-12-18T02:39:18.602Z,-6.42
2022-12-18T02:41:45.182Z,-6.53
2022-12-18T02:44:13.520Z,-6.56
2022-12-18T02:46:49.819Z,-6.58
2022-12-18T02:49:22.330Z,-6.69
2022-12-18T02:51:55.968Z,-6.72
2022-12-18T02:54:51.618Z,-6.68
2022-12-18T02:57:36.766Z,-6.76
2022-12-18T03:00:18.783Z,-6.67
2022-12-18T03:02:57.426Z,-6.78
2022-12-18T03:05:29.217Z,-6.84
2022-12-18T03:08:09.361Z,-6.78
2022-12-18T03:10:40.894Z,-6.88
2022-12-18T03:13:11.675Z,-6.90
2022-12-18T03:15:49.840Z,-6.89
2022-12-18T03:18:19.743Z,-6.93
2022-12-18T03:20:48.181Z,-6.93
2022-12-18T03:23:24.329Z,-6.95
2022-12-18T03:25:55.127Z,-6.97
2022-12-18T03:28:23.017Z,-6.88
2022-12-18T03:30:53.319Z,-6.93
2022-12-18T03:33:28.844Z,-7.11
2022-12-18T03:35:55.386Z,-7.17
2022-12-18T03:38:21.822Z,-7.12
2022-12-18T03:40:48.134Z,-7.10
2022-12-18T03:43:41.026Z,-7.19
2022-12-18T03:46:21.718Z,-7.14
2022-12-18T03:49:12.370Z,-7.23
2022-12-18T03:51:52.770Z,-7.18
2022-12-18T03:54:19.862Z,-7.28
2022-12-18T03:56:49.701Z,-7.31
2022-12-18T03:59:17.572Z,-7.28
2022-12-18T04:01:47.744Z,-7.25
2022-12-18T04:04:16.408Z,-7.34
2022-12-18T04:06:44.312Z,-7.43
2022-12-18T04:09:10.850Z,-7.40
2022-12-18T04:11:37.256Z,-7.47
2022-12-18T04:14:07.060Z,-7.42
2022-12-18T04:16:33.793Z,-7.43
2022-12-18T04:19:00.205Z,-7.38
2022-12-18T04:21:26.815Z,-7.42
2022-12-18T04:23:53.302Z,-7.42
2022-12-18T04:26:19.939Z,-7.37
2022-12-18T04:28:46.644Z,-7.47
2022-12-18T04:31:13.181Z,-7.47
2022-12-18T04:33:40.062Z,-7.42
2022-12-18T04:36:07.162Z,-7.39
2022-12-18T04:38:33.751Z,-7.47
2022-12-18T04:41:00.154Z,-7.57
2022-12-18T04:43:26.614Z,-7.53
2022-12-18T04:45:53.046Z,-7.59
2022-12-18T04:48:21.081Z,-7.58
2022-12-18T04:50:48.020Z,-7.62
2022-12-18T04:53:14.390Z,-7.75
2022-12-18T04:55:40.797Z,-7.70
2022-12-18T04:58:07.231Z,-7.75
2022-12-18T05:00:33.711Z,-7.76
2022-12-18T05:03:02.571Z,-7.79
2022-12-18T05:05:29.284Z,-7.76
2022-12-18T05:07:55.757Z,-7.76
2022-12-18T05:10:22.257Z,-7.82
2022-12-18T05:13:01.195Z,-7.89
2022-12-18T05:15:31.935Z,-7.80
2022-12-18T05:17:59.195Z,-7.83
2022-12-18T05:20:26.526Z,-7.97
2022-12-18T05:22:54.937Z,-7.99
2022-12-18T05:25:21.751Z,-7.99
2022-12-18T05:27:48.446Z,-7.99
2022-12-18T05:30:15.262Z,-7.99
2022-12-18T05:32:42.033Z,-7.95
2022-12-18T05:35:10.397Z,-8.03
2022-12-18T05:37:42.543Z,-8.05
2022-12-18T05:40:10.214Z,-7.96
2022-12-18T05:42:36.630Z,-8.00
2022-12-18T05:45:03.283Z,-8.14
2022-12-18T05:47:29.814Z,-8.06
2022-12-18T05:49:56.418Z,-8.09
2022-12-18T05:52:22.833Z,-8.18
2022-12-18T05:54:49.262Z,-8.10
2022-12-18T05:57:15.685Z,-8.15
2022-12-18T05:59:42.088Z,-8.08
2022-12-18T06:02:08.782Z,-8.14
2022-12-18T06:04:35.439Z,-8.12
2022-12-18T06:07:04.734Z,-8.19
2022-12-18T06:09:31.168Z,-8.14
2022-12-18T06:11:57.564Z,-8.21
2022-12-18T06:14:23.936Z,-8.23
2022-12-18T06:16:52.336Z,-8.27
2022-12-18T06:19:18.868Z,-8.22
2022-12-18T06:21:45.492Z,-8.19
2022-12-18T06:24:12.008Z,-8.24
2022-12-18T06:26:39.885Z,-8.28
2022-12-18T06:29:06.835Z,-8.28
2022-12-18T06:31:33.467Z,-8.18
2022-12-18T06:33:59.921Z,-8.20
2022-12-18T06:36:26.996Z,-8.21
2022-12-18T06:38:53.423Z,-8.15
2022-12-18T06:41:21.298Z,-8.22
2022-12-18T06:43:47.829Z,-8.12
2022-12-18T06:46:14.546Z,-8.12
2022-12-18T06:48:41.147Z,-8.18
2022-12-18T06:51:07.659Z,-8.19
2022-12-18T06:53:35.272Z,-8.17
2022-12-18T06:56:08.013Z,-8.14
2022-12-18T06:58:36.497Z,-8.15
2022-12-18T07:01:04.892Z,-8.11
2022-12-18T07:03:31.559Z,-8.06
2022-12-18T07:05:57.996Z,-8.07
2022-12-18T07:08:24.429Z,-8.11
2022-12-18T07:10:55.958Z,-8.12
2022-12-18T07:13:22.860Z,-8.01
2022-12-18T07:15:49.305Z,-8.03
2022-12-18T07:18:15.702Z,-8.03
2022-12-18T07:20:42.130Z,-7.98
2022-12-18T07:23:08.521Z,-8.00
2022-12-18T07:25:38.350Z,-7.97
2022-12-18T07:28:05.124Z,-7.98
2022-12-18T07:30:31.530Z,-8.02
2022-12-18T07:32:57.997Z,-7.94
2022-12-18T07:35:25.305Z,-7.99
2022-12-18T07:37:52.120Z,-7.96
2022-12-18T07:40:18.598Z,-7.92
2022-12-18T07:42:45.356Z,-7.91
2022-12-18T07:45:11.839Z,-7.89
2022-12-18T07:47:38.443Z,-7.90
2022-12-18T07:50:05.664Z,-7.94
2022-12-18T07:52:32.076Z,-7.94
2022-12-18T07:54:59.646Z,-7.90
2022-12-18T08:00:13.263Z,-7.84
2022-12-18T08:02:39.824Z,-7.81
2022-12-18T08:05:06.519Z,-7.75
2022-12-18T08:07:33.561Z,-7.70
2022-12-18T08:10:00.056Z,-7.65
2022-12-18T08:12:26.469Z,-7.61
2022-12-18T08:14:52.908Z,-7.58
2022-12-18T08:17:21.072Z,-7.56
2022-12-18T08:19:47.466Z,-7.50
2022-12-18T08:22:13.846Z,-7.51
2022-12-18T08:24:40.262Z,-7.46
2022-12-18T08:27:29.002Z,-7.47
2022-12-18T08:29:53.019Z,-7.44
2022-12-18T08:32:19.494Z,-7.36
2022-12-18T08:34:45.937Z,-7.37
2022-12-18T08:37:12.334Z,-7.36
2022-12-18T08:39:38.746Z,-7.35
2022-12-18T08:42:23.800Z,-7.29
2022-12-18T08:44:50.210Z,-7.29
2022-12-18T08:47:16.588Z,-7.27
2022-12-18T08:49:43.254Z,-7.13
2022-12-18T08:52:10.386Z,-7.09
2022-12-18T08:54:36.786Z,-7.04
2022-12-18T08:57:03.357Z,-6.94
2022-12-18T08:59:29.724Z,-6.97
2022-12-18T09:01:56.436Z,-6.95
2022-12-18T09:04:23.286Z,-6.95
2022-12-18T09:06:50.497Z,-6.88
2022-12-18T09:09:16.992Z,-6.84
2022-12-18T09:11:43.466Z,-6.75
2022-12-18T09:14:10.385Z,-6.67
2022-12-18T09:16:36.944Z,-6.57
2022-12-18T09:19:04.988Z,-6.51
2022-12-18T09:21:35.132Z,-6.51
2022-12-18T09:24:04.119Z,-6.46
2022-12-18T09:26:31.790Z,-6.48
2022-12-18T09:28:58.272Z,-6.41
2022-12-18T09:31:25.638Z,-6.37
2022-12-18T09:33:52.236Z,-6.40
2022-12-18T09:36:19.129Z,-6.33
2022-12-18T09:38:45.549Z,-6.28
2022-12-18T09:41:30.296Z,-6.26
2022-12-18T09:44:19.990Z,-6.21
2022-12-18T09:47:19.218Z,-6.22
2022-12-18T09:49:47.343Z,-6.22
2022-12-18T09:52:20.447Z,-6.15
2022-12-18T09:54:55.041Z,-6.19
2022-12-18T09:57:23.246Z,-6.14
2022-12-18T09:59:56.456Z,-6.21
2022-12-18T10:02:25.378Z,-6.19
2022-12-18T10:05:17.903Z,-6.10
2022-12-18T10:08:14.743Z,-6.08
2022-12-18T10:10:54.084Z,-6.03
2022-12-18T10:13:38.931Z,-5.91
2022-12-18T10:16:20.760Z,-5.94
2022-12-18T10:18:50.187Z,-5.90
2022-12-18T10:21:27.746Z,-5.87
2022-12-18T10:24:26.633Z,-5.83
2022-12-18T10:26:54.121Z,-5.81
2022-12-18T10:29:20.656Z,-5.64
2022-12-18T10:31:47.096Z,-5.63
2022-12-18T10:34:13.968Z,-5.66
2022-12-18T10:36:40.487Z,-5.65
2022-12-18T10:39:24.077Z,-5.65
2022-12-18T10:41:50.497Z,-5.62
2022-12-18T10:44:19.585Z,-5.55
2022-12-18T10:46:51.106Z,-5.51
2022-12-18T10:49:24.268Z,-5.45
2022-12-18T10:51:51.035Z,-5.49
2022-12-18T10:54:23.778Z,-5.52
2022-12-18T10:56:50.542Z,-5.45
2022-12-18T10:59:18.468Z,-5.39
2022-12-18T11:01:58.780Z,-5.40
2022-12-18T11:04:30.856Z,-5.25
2022-12-18T11:07:00.402Z,-5.21
2022-12-18T11:09:30.662Z,-5.14
2022-12-18T11:12:00.104Z,-5.15
2022-12-18T11:14:30.367Z,-5.16
2022-12-18T11:17:24.504Z,-5.19
2022-12-18T11:19:43.891Z,-5.17
2022-12-18T11:22:27.460Z,-5.04
2022-12-18T11:27:53.929Z,-5.01
2022-12-18T11:30:29.619Z,-5.00
2022-12-18T11:33:05.174Z,-4.90
2022-12-18T11:35:51.169Z,-4.95
2022-12-18T11:38:30.743Z,-4.97
2022-12-18T11:41:01.291Z,-4.93
2022-12-18T11:43:34.857Z,-5.05
2022-12-18T11:46:14.766Z,-5.02
2022-12-18T11:48:53.506Z,-4.97
2022-12-18T11:51:27.437Z,-4.93
2022-12-18T11:53:53.995Z,-4.91
2022-12-18T11:56:32.154Z,-4.96
2022-12-18T11:59:19.747Z,-4.82
2022-12-18T12:02:15.519Z,-4.77
2022-12-18T12:05:10.248Z,-4.80
2022-12-18T12:07:36.618Z,-4.75
2022-12-18T12:10:26.279Z,-4.79
2022-12-18T12:13:01.583Z,-4.81
2022-12-18T12:15:37.220Z,-4.79
2022-12-18T12:18:44.306Z,-4.82
2022-12-18T12:21:32.533Z,-4.72
2022-12-18T12:24:27.043Z,-4.69
2022-12-18T12:27:03.297Z,-4.75
2022-12-18T12:29:43.021Z,-4.75
2022-12-18T12:32:18.454Z,-4.63
2022-12-18T12:35:17.209Z,-4.60
2022-12-18T12:38:10.263Z,-4.65
2022-12-18T12:40:55.357Z,-4.58
2022-12-18T12:43:51.112Z,-4.56
2022-12-18T12:46:20.397Z,-4.43
2022-12-18T12:48:50.080Z,-4.39
2022-12-18T12:51:41.751Z,-4.30
2022-12-18T12:54:16.351Z,-4.32
2022-12-18T12:56:48.922Z,-4.29
2022-12-18T12:59:28.951Z,-4.25
2022-12-18T13:02:00.572Z,-4.24
2022-12-18T13:04:47.048Z,-4.22
2022-12-18T13:07:34.971Z,-4.14
2022-12-18T13:10:23.793Z,-4.04
2022-12-18T13:12:56.835Z,-3.97
2022-12-18T13:15:48.279Z,-3.95
2022-12-18T13:18:16.153Z,-3.94
2022-12-18T13:20:53.115Z,-3.87
2022-12-18T13:23:25.887Z,-3.89
2022-12-18T13:25:58.411Z,-3.88
2022-12-18T13:28:47.839Z,-3.92
2022-12-18T13:31:40.384Z,-3.94
2022-12-18T13:37:32.363Z,-3.84
2022-12-18T13:39:59.134Z,-3.83
2022-12-18T13:42:57.794Z,-3.74
2022-12-18T13:45:46.147Z,-3.70
2022-12-18T13:48:21.904Z,-3.68
2022-12-18T13:50:59.172Z,-3.74
2022-12-18T13:53:29.357Z,-3.74
2022-12-18T13:55:56.069Z,-3.67
2022-12-18T13:58:23.531Z,-3.65
2022-12-18T14:00:50.056Z,-3.67
2022-12-18T14:03:29.353Z,-3.70
2022-12-18T14:06:16.124Z,-3.64
2022-12-18T14:08:44.542Z,-3.67
2022-12-18T14:11:21.802Z,-3.64
2022-12-18T14:13:49.318Z,-3.61
2022-12-18T14:16:17.995Z,-3.63
2022-12-18T14:18:58.749Z,-3.58
2022-12-18T14:21:33.381Z,-3.60
2022-12-18T14:24:20.591Z,-3.67
2022-12-18T14:26:50.425Z,-3.71
2022-12-18T14:29:23.469Z,-3.71
2022-12-18T14:32:17.069Z,-3.62
2022-12-18T14:34:52.617Z,-3.64
2022-12-18T14:37:23.240Z,-3.57
2022-12-18T14:40:10.447Z,-3.58
2022-12-18T14:42:38.192Z,-3.53
2022-12-18T14:45:43.318Z,-3.53
2022-12-18T14:48:22.851Z,-3.45
2022-12-18T14:51:19.244Z,-3.57
2022-12-18T14:53:54.162Z,-3.55
2022-12-18T14:56:30.289Z,-3.52
2022-12-18T14:59:01.423Z,-3.51
2022-12-18T15:01:30.957Z,-3.50
2022-12-18T15:03:58.809Z,-3.49
2022-12-18T15:06:37.042Z,-3.51
2022-12-18T15:09:23.507Z,-3.45
2022-12-18T15:11:51.321Z,-3.47
2022-12-18T15:14:30.048Z,-3.55
2022-12-18T15:16:57.426Z,-3.51
2022-12-18T15:19:48.455Z,-3.46
2022-12-18T15:22:26.425Z,-3.52
2022-12-18T15:24:52.964Z,-3.51
2022-12-18T15:27:28.530Z,-3.47
2022-12-18T15:30:21.194Z,-3.49
2022-12-18T15:32:48.230Z,-3.50
2022-12-18T15:35:20.741Z,-3.48
2022-12-18T15:37:47.584Z,-3.48
2022-12-18T15:40:21.959Z,-3.48
2022-12-18T15:43:07.927Z,-3.48
2022-12-18T15:45:34.396Z,-3.52
2022-12-18T15:48:00.938Z,-3.50
2022-12-18T15:50:27.378Z,-3.50
2022-12-18T15:52:56.340Z,-3.50
2022-12-18T15:55:42.855Z,-3.53
2022-12-18T15:58:10.700Z,-3.53
2022-12-18T16:00:39.413Z,-3.51
2022-12-18T16:03:06.240Z,-3.49
2022-12-18T16:05:33.299Z,-3.54
2022-12-18T16:07:59.770Z,-3.51
2022-12-18T16:10:27.062Z,-3.53
2022-12-18T16:12:53.551Z,-3.49
2022-12-18T16:15:24.480Z,-3.51
2022-12-18T16:17:51.293Z,-3.40
2022-12-18T16:20:19.817Z,-3.40
2022-12-18T16:22:46.962Z,-3.43
2022-12-18T16:25:28.422Z,-3.40
2022-12-18T16:27:58.803Z,-3.38
2022-12-18T16:30:28.709Z,-3.38
2022-12-18T16:33:02.660Z,-3.33
2022-12-18T16:35:29.173Z,-3.34
2022-12-18T16:37:55.543Z,-3.33
2022-12-18T16:40:22.004Z,-3.31
2022-12-18T16:42:48.471Z,-3.31
2022-12-18T16:45:18.563Z,-3.27
2022-12-18T16:47:45.587Z,-3.28
2022-12-18T16:50:12.284Z,-3.30
2022-12-18T16:52:39.834Z,-3.30
2022-12-18T16:55:06.692Z,-3.26
2022-12-18T16:57:33.277Z,-3.27
2022-12-18T17:00:04.729Z,-3.27
2022-12-18T17:02:32.087Z,-3.25
2022-12-18T17:04:59.297Z,-3.25
2022-12-18T17:07:26.964Z,-3.23
2022-12-18T17:09:54.111Z,-3.24
2022-12-18T17:12:21.004Z,-3.21
2022-12-18T17:14:47.510Z,-3.24
2022-12-18T17:17:22.543Z,-3.17
2022-12-18T17:19:50.072Z,-3.19
2022-12-18T17:22:16.466Z,-3.20
2022-12-18T17:24:42.890Z,-3.19
2022-12-18T17:27:09.316Z,-3.23
2022-12-18T17:29:35.925Z,-3.17
2022-12-18T17:32:02.372Z,-3.21
2022-12-18T17:34:29.032Z,-3.19
2022-12-18T17:36:56.640Z,-3.19
2022-12-18T17:39:23.096Z,-3.21
2022-12-18T17:41:49.880Z,-3.22
2022-12-18T17:44:17.043Z,-3.19
2022-12-18T17:46:45.103Z,-3.17
2022-12-18T17:49:11.983Z,-3.24
2022-12-18T17:51:38.439Z,-3.24
2022-12-18T17:54:05.394Z,-3.23
2022-12-18T17:56:32.782Z,-3.22
2022-12-18T17:58:59.227Z,-3.20
2022-12-18T18:01:26.063Z,-3.20
2022-12-18T18:03:54.161Z,-3.13
2022-12-18T18:06:20.798Z,-3.13
2022-12-18T18:08:47.322Z,-3.10
2022-12-18T18:11:35.119Z,-3.04
2022-12-18T18:14:04.103Z,-3.02
2022-12-18T18:16:43.746Z,-2.99
2022-12-18T18:19:16.361Z,-2.98
2022-12-18T18:21:44.714Z,-2.99
2022-12-18T18:24:13.403Z,-2.94
2022-12-18T18:26:41.472Z,-2.86
2022-12-18T18:29:08.557Z,-2.91
2022-12-18T18:31:40.953Z,-2.83
2022-12-18T18:34:08.463Z,-2.81
2022-12-18T18:36:34.890Z,-2.82
2022-12-18T18:39:02.152Z,-2.80
2022-12-18T18:41:29.940Z,-2.76
2022-12-18T18:43:57.754Z,-2.75
2022-12-18T18:46:24.914Z,-2.72
2022-12-18T18:48:51.570Z,-2.70
2022-12-18T18:51:21.074Z,-2.75
2022-12-18T18:53:49.786Z,-2.70
2022-12-18T18:59:04.819Z,-2.67
2022-12-18T19:01:31.426Z,-2.62
2022-12-18T19:03:57.923Z,-2.62
2022-12-18T19:06:26.606Z,-2.57
2022-12-18T19:08:54.640Z,-2.61
2022-12-18T19:11:40.727Z,-2.62
2022-12-18T19:14:09.654Z,-2.58
2022-12-18T19:16:36.605Z,-2.56
2022-12-18T19:19:03.533Z,-2.61
2022-12-18T19:21:31.383Z,-2.57
2022-12-18T19:24:01.459Z,-2.51
2022-12-18T19:26:28.735Z,-2.53
2022-12-18T19:29:00.975Z,-2.52
2022-12-18T19:31:33.407Z,-2.51
2022-12-18T19:34:01.675Z,-2.49
2022-12-18T19:36:30.194Z,-2.50
2022-12-18T19:38:58.969Z,-2.49
2022-12-18T19:41:26.121Z,-2.48
2022-12-18T19:43:55.473Z,-2.50
2022-12-18T19:46:23.004Z,-2.49
2022-12-18T19:48:50.181Z,-2.46
2022-12-18T19:51:17.626Z,-2.56
2022-12-18T19:53:44.526Z,-2.46
2022-12-18T19:56:16.841Z,-2.46
2022-12-18T19:58:44.438Z,-2.41
2022-12-18T20:01:16.618Z,-2.40
2022-12-18T20:03:44.568Z,-2.39
2022-12-18T20:06:30.414Z,-2.39
2022-12-18T20:09:00.438Z,-2.38
2022-12-18T20:11:31.290Z,-2.38
2022-12-18T20:14:01.109Z,-2.41
2022-12-18T20:16:27.638Z,-2.34
2022-12-18T20:18:54.217Z,-2.32
2022-12-18T20:21:21.131Z,-2.33
2022-12-18T20:23:47.565Z,-2.29
2022-12-18T20:26:14.015Z,-2.30
2022-12-18T20:28:40.845Z,-2.26
2022-12-18T20:31:13.363Z,-2.25
2022-12-18T20:33:41.210Z,-2.23
2022-12-18T20:36:11.111Z,-2.21
2022-12-18T20:38:39.049Z,-2.18
2022-12-18T20:41:19.261Z,-2.20
2022-12-18T20:43:45.746Z,-2.21
2022-12-18T20:46:13.636Z,-2.20
2022-12-18T20:48:40.839Z,-2.18
2022-12-18T20:51:15.825Z,-2.12
2022-12-18T20:53:42.986Z,-2.13
2022-12-18T20:56:21.825Z,-2.07
2022-12-18T20:58:49.719Z,-2.05
2022-12-18T21:01:20.937Z,-2.05
2022-12-18T21:03:48.109Z,-2.03
2022-12-18T21:06:16.950Z,-2.02
2022-12-18T21:08:43.696Z,-2.08
2022-12-18T21:11:42.510Z,-2.01
2022-12-18T21:14:20.762Z,-2.00
2022-12-18T21:16:47.714Z,-1.97
2022-12-18T21:19:17.733Z,-1.97
2022-12-18T21:21:44.626Z,-1.93
2022-12-18T21:24:11.785Z,-1.95
2022-12-18T21:26:44.909Z,-1.97
2022-12-18T21:29:14.710Z,-1.92
2022-12-18T21:31:41.630Z,-1.90
2022-12-18T21:34:08.547Z,-1.92
2022-12-18T21:36:35.085Z,-1.90
2022-12-18T21:39:01.886Z,-1.86
2022-12-18T21:41:47.696Z,-1.86
2022-12-18T21:44:17.046Z,-1.86
2022-12-18T21:46:48.965Z,-1.88
2022-12-18T21:49:22.957Z,-1.84
2022-12-18T21:51:51.923Z,-1.84
2022-12-18T21:54:18.718Z,-1.86
2022-12-18T21:56:45.088Z,-1.85
2022-12-18T21:59:14.205Z,-1.81
2022-12-18T22:01:40.741Z,-1.81
2022-12-18T22:04:07.328Z,-1.81
2022-12-18T22:06:33.745Z,-1.77
2022-12-18T22:09:00.140Z,-1.77
2022-12-18T22:11:26.593Z,-1.79
2022-12-18T22:13:52.961Z,-1.82
2022-12-18T22:16:19.419Z,-1.76
2022-12-18T22:18:45.867Z,-1.76
2022-12-18T22:21:29.893Z,-1.74
2022-12-18T22:24:02.074Z,-1.72
2022-12-18T22:26:30.438Z,-1.72
2022-12-18T22:29:17.236Z,-1.72
2022-12-18T22:31:43.929Z,-1.70
2022-12-18T22:34:10.420Z,-1.75
2022-12-18T22:36:41.580Z,-1.70
2022-12-18T22:39:11.618Z,-1.64
2022-12-18T22:41:37.987Z,-1.63
2022-12-18T22:44:04.407Z,-1.62
2022-12-18T22:46:33.414Z,-1.64
2022-12-18T22:48:59.946Z,-1.57
2022-12-18T22:51:26.344Z,-1.67
2022-12-18T22:53:52.944Z,-1.58
2022-12-18T22:56:21.550Z,-1.63
2022-12-18T22:58:49.334Z,-1.57
2022-12-18T23:01:22.109Z,-1.54
2022-12-18T23:03:49.302Z,-1.50
2022-12-18T23:06:16.252Z,-1.51
2022-12-18T23:08:43.500Z,-1.43
2022-12-18T23:11:10.654Z,-1.41
2022-12-18T23:13:37.488Z,-1.38
2022-12-18T23:16:08.362Z,-1.36
2022-12-18T23:18:35.783Z,-1.36
2022-12-18T23:21:06.853Z,-1.36
2022-12-18T23:23:37.111Z,-1.37
2022-12-18T23:26:05.773Z,-1.35
2022-12-18T23:28:33.315Z,-1.34
2022-12-18T23:31:14.272Z,-1.32
2022-12-18T23:33:43.023Z,-1.26
2022-12-18T23:36:11.186Z,-1.24
2022-12-18T23:38:37.747Z,-1.22
2022-12-18T23:41:13.011Z,-1.25
2022-12-18T23:43:39.452Z,-1.20
2022-12-18T23:46:30.864Z,-1.17
2022-12-18T23:49:00.736Z,-1.16
2022-12-18T23:51:27.825Z,-1.14
2022-12-18T23:54:01.956Z,-1.08
2022-12-18T23:56:29.355Z,-1.13
2022-12-18T23:58:56.119Z,-1.06
